createdAt,value
2018-05-03T00:02:09.145Z,9.93
2018-05-03T00:04:37.446Z,9.93
2018-05-03T00:07:05.719Z,11.13
2018-05-03T00:09:34.031Z,11.17
2018-05-03T00:12:03.061Z,12.20
2018-05-03T00:14:31.342Z,12.17
2018-05-03T00:16:59.644Z,12.70
2018-05-03T00:19:27.912Z,11.90
2018-05-03T00:21:56.981Z,11.33
2018-05-03T00:24:25.241Z,13.70
2018-05-03T00:26:54.290Z,13.27
2018-05-03T00:29:22.569Z,12.93
2018-05-03T00:31:50.889Z,12.77
2018-05-03T00:34:23.284Z,13.83
2018-05-03T00:36:51.624Z,12.57
2018-05-03T00:39:19.880Z,14.03
2018-05-03T00:41:48.171Z,13.50
2018-05-03T00:44:16.463Z,13.87
2018-05-03T00:46:44.714Z,14.77
2018-05-03T00:49:13.052Z,14.33
2018-05-03T00:51:41.340Z,13.03
2018-05-03T00:54:21.489Z,12.23
2018-05-03T00:56:49.789Z,14.60
2018-05-03T00:59:18.178Z,13.47
2018-05-03T01:01:46.442Z,13.30
2018-05-03T01:04:14.704Z,13.07
2018-05-03T01:06:43.010Z,14.70
2018-05-03T01:09:11.313Z,15.10
2018-05-03T01:11:39.603Z,13.80
2018-05-03T01:14:08.628Z,14.57
2018-05-03T01:16:36.925Z,16.00
2018-05-03T01:19:05.952Z,18.20
2018-05-03T01:21:34.250Z,18.53
2018-05-03T01:24:03.285Z,20.00
2018-05-03T01:26:31.598Z,18.50
2018-05-03T01:28:59.865Z,19.50
2018-05-03T01:31:28.131Z,19.70
2018-05-03T01:33:56.453Z,19.70
2018-05-03T01:36:30.977Z,20.37
2018-05-03T01:39:00.082Z,19.20
2018-05-03T01:41:29.127Z,21.20
2018-05-03T01:43:57.416Z,20.20
2018-05-03T01:46:25.689Z,19.30
2018-05-03T01:48:53.965Z,20.97
2018-05-03T01:51:22.290Z,20.50
2018-05-03T01:53:50.586Z,20.10
2018-05-03T01:56:18.857Z,21.70
2018-05-03T01:58:47.887Z,20.47
2018-05-03T02:01:16.170Z,19.93
2018-05-03T02:03:44.441Z,20.40
2018-05-03T02:06:12.766Z,19.30
2018-05-03T02:08:41.809Z,21.97
2018-05-03T02:11:10.070Z,20.80
2018-05-03T02:13:38.375Z,22.50
2018-05-03T02:16:06.633Z,21.30
2018-05-03T02:18:34.957Z,21.67
2018-05-03T02:21:03.245Z,21.37
2018-05-03T02:23:31.517Z,21.40
2018-05-03T02:25:59.857Z,21.10
2018-05-03T02:28:28.106Z,23.33
2018-05-03T02:30:56.405Z,23.40
2018-05-03T02:33:24.693Z,26.10
2018-05-03T02:35:52.961Z,24.10
2018-05-03T02:38:21.251Z,23.40
2018-05-03T02:40:49.529Z,25.03
2018-05-03T02:43:17.818Z,27.13
2018-05-03T02:45:46.095Z,28.60
2018-05-03T02:48:14.362Z,28.10
2018-05-03T02:50:42.650Z,27.40
2018-05-03T02:53:10.936Z,30.57
2018-05-03T02:55:39.207Z,32.13
2018-05-03T02:58:19.281Z,31.50
2018-05-03T03:01:05.319Z,32.37
2018-05-03T03:03:51.364Z,31.20
2018-05-03T03:06:37.399Z,29.83
2018-05-03T03:09:23.310Z,29.53
2018-05-03T03:25:53.456Z,24.00
2018-05-03T03:28:39.419Z,25.57
2018-05-03T03:31:25.436Z,27.13
2018-05-03T03:34:11.226Z,27.20
2018-05-03T03:50:09.671Z,25.93
2018-05-03T03:52:37.972Z,26.77
2018-05-03T03:55:06.240Z,26.60
2018-05-03T03:57:34.534Z,27.20
2018-05-03T04:00:02.943Z,28.80
2018-05-03T04:02:31.206Z,25.80
2018-05-03T04:04:59.496Z,27.10
2018-05-03T04:07:27.765Z,25.80
2018-05-03T04:09:56.075Z,23.77
2018-05-03T04:12:25.130Z,23.40
2018-05-03T04:14:53.402Z,23.60
2018-05-03T04:17:22.537Z,23.20
2018-05-03T04:20:06.766Z,21.93
2018-05-03T04:22:46.809Z,22.17
2018-05-03T04:25:26.768Z,23.60
2018-05-03T04:27:55.072Z,21.33
2018-05-03T04:30:23.352Z,23.07
2018-05-03T04:32:51.654Z,23.03
2018-05-03T04:35:19.918Z,22.40
2018-05-03T04:37:48.940Z,20.70
2018-05-03T04:40:17.229Z,19.63
2018-05-03T04:42:45.496Z,20.73
2018-05-03T04:45:13.797Z,21.27
2018-05-03T04:47:42.090Z,21.73
2018-05-03T04:50:10.403Z,20.30
2018-05-03T04:52:39.431Z,21.87
2018-05-03T04:55:07.712Z,21.50
2018-05-03T04:57:36.035Z,25.90
2018-05-03T05:00:04.336Z,21.53
2018-05-03T05:02:33.399Z,20.73
2018-05-03T05:05:01.679Z,22.00
2018-05-03T05:07:29.943Z,23.17
2018-05-03T05:09:58.228Z,21.63
2018-05-03T05:12:26.500Z,20.97
2018-05-03T05:14:54.787Z,23.20
2018-05-03T05:17:23.158Z,20.30
2018-05-03T05:19:51.470Z,20.70
2018-05-03T05:22:20.505Z,21.17
2018-05-03T05:24:48.815Z,21.37
2018-05-03T05:27:17.089Z,20.03
2018-05-03T05:29:45.390Z,21.83
2018-05-03T05:32:13.700Z,19.60
2018-05-03T05:34:42.883Z,18.63
2018-05-03T05:37:11.981Z,19.43
2018-05-03T05:39:41.014Z,17.70
2018-05-03T05:42:09.322Z,18.50
2018-05-03T05:44:37.622Z,18.47
2018-05-03T05:47:05.892Z,18.63
2018-05-03T05:49:34.212Z,18.90
2018-05-03T05:52:03.249Z,17.20
2018-05-03T05:54:31.549Z,18.63
2018-05-03T05:57:00.647Z,17.47
2018-05-03T05:59:28.983Z,18.20
2018-05-03T06:01:57.262Z,20.73
2018-05-03T06:04:25.584Z,18.60
2018-05-03T06:06:53.873Z,18.40
2018-05-03T06:09:22.899Z,17.57
2018-05-03T06:11:51.266Z,17.80
2018-05-03T06:14:20.289Z,18.63
2018-05-03T06:16:48.598Z,18.20
2018-05-03T06:19:17.856Z,17.50
2018-05-03T06:21:46.149Z,20.10
2018-05-03T06:24:15.225Z,20.80
2018-05-03T06:26:43.499Z,19.40
2018-05-03T06:29:11.792Z,19.77
2018-05-03T06:31:40.051Z,20.43
2018-05-03T06:34:08.372Z,23.50
2018-05-03T06:36:37.385Z,20.50
2018-05-03T06:39:05.680Z,21.20
2018-05-03T06:41:34.727Z,21.47
2018-05-03T06:44:02.999Z,21.00
2018-05-03T06:46:32.319Z,20.20
2018-05-03T06:49:00.593Z,18.57
2018-05-03T06:51:28.982Z,19.23
2018-05-03T06:53:57.173Z,18.93
2018-05-03T06:56:25.505Z,19.30
2018-05-03T06:58:53.796Z,18.43
2018-05-03T07:01:22.087Z,19.60
2018-05-03T07:03:50.393Z,19.00
2018-05-03T07:06:18.696Z,20.57
2018-05-03T07:08:47.001Z,17.93
2018-05-03T07:11:15.261Z,17.90
2018-05-03T07:13:43.591Z,18.13
2018-05-03T07:16:11.877Z,17.60
2018-05-03T07:18:40.115Z,17.87
2018-05-03T07:21:08.412Z,18.10
2018-05-03T07:23:36.675Z,18.63
2018-05-03T07:26:04.986Z,16.57
2018-05-03T07:28:33.414Z,17.90
2018-05-03T07:31:02.356Z,18.87
2018-05-03T07:33:30.736Z,19.90
2018-05-03T07:35:59.026Z,17.03
2018-05-03T07:38:27.298Z,20.17
2018-05-03T07:40:55.676Z,18.90
2018-05-03T07:43:24.772Z,17.90
2018-05-03T07:45:53.053Z,18.23
2018-05-03T07:48:21.350Z,18.47
2018-05-03T07:50:50.399Z,17.30
2018-05-03T07:53:18.698Z,17.77
2018-05-03T07:55:46.969Z,16.73
2018-05-03T07:58:15.270Z,17.60
2018-05-03T08:00:43.565Z,18.47
2018-05-03T08:03:11.898Z,16.70
2018-05-03T08:05:40.178Z,16.43
2018-05-03T08:08:08.526Z,16.20
2018-05-03T08:10:36.856Z,19.37
2018-05-03T08:13:05.129Z,16.40
2018-05-03T08:15:33.418Z,16.67
2018-05-03T08:18:01.699Z,16.00
2018-05-03T08:20:30.754Z,14.90
2018-05-03T08:22:59.049Z,14.93
2018-05-03T08:25:27.319Z,17.27
2018-05-03T08:27:55.625Z,15.40
2018-05-03T08:30:23.914Z,16.80
2018-05-03T08:32:52.239Z,15.97
2018-05-03T08:35:20.499Z,16.90
2018-05-03T08:37:48.769Z,15.40
2018-05-03T08:40:17.116Z,15.60
2018-05-03T08:42:45.421Z,18.47
2018-05-03T08:45:14.470Z,16.30
2018-05-03T08:47:42.767Z,14.53
2018-05-03T08:50:11.108Z,15.50
2018-05-03T08:52:39.376Z,15.47
2018-05-03T08:55:07.686Z,14.50
2018-05-03T08:57:35.958Z,16.17
2018-05-03T09:00:04.263Z,14.80
2018-05-03T09:02:32.554Z,15.67
2018-05-03T09:05:01.621Z,15.70
2018-05-03T09:07:29.978Z,15.40
2018-05-03T09:09:58.220Z,16.33
2018-05-03T09:12:26.564Z,16.33
2018-05-03T09:14:54.850Z,16.80
2018-05-03T09:17:23.630Z,15.67
2018-05-03T09:19:51.928Z,16.60
2018-05-03T09:22:20.966Z,13.83
2018-05-03T09:24:49.246Z,16.23
2018-05-03T09:27:17.509Z,16.00
2018-05-03T09:29:45.810Z,14.00
2018-05-03T09:32:14.091Z,16.20
2018-05-03T09:34:42.396Z,16.00
2018-05-03T09:37:11.463Z,16.60
2018-05-03T09:39:39.735Z,15.30
2018-05-03T09:42:08.024Z,15.33
2018-05-03T09:44:36.318Z,15.07
2018-05-03T09:47:04.595Z,16.60
2018-05-03T09:49:32.901Z,15.20
2018-05-03T09:52:01.247Z,15.37
2018-05-03T09:54:29.518Z,15.13
2018-05-03T09:56:57.787Z,15.27
2018-05-03T09:59:26.102Z,15.83
2018-05-03T10:01:55.449Z,15.07
2018-05-03T10:04:23.745Z,15.37
2018-05-03T10:06:52.017Z,16.13
2018-05-03T10:09:20.364Z,16.90
2018-05-03T10:11:48.656Z,15.90
2018-05-03T10:14:16.930Z,15.23
2018-05-03T10:16:45.247Z,15.87
2018-05-03T10:19:13.511Z,17.87
2018-05-03T10:21:41.832Z,17.40
2018-05-03T10:24:10.103Z,16.57
2018-05-03T10:26:38.442Z,17.43
2018-05-03T10:29:08.142Z,16.20
2018-05-03T10:31:36.420Z,17.53
2018-05-03T10:34:04.763Z,15.90
2018-05-03T10:36:33.815Z,16.10
2018-05-03T10:39:02.117Z,18.13
2018-05-03T10:41:31.186Z,18.53
2018-05-03T10:43:59.465Z,15.30
2018-05-03T10:46:27.762Z,15.93
2018-05-03T10:48:56.114Z,16.80
2018-05-03T10:51:24.391Z,19.97
2018-05-03T10:53:52.670Z,17.03
2018-05-03T10:56:20.977Z,15.70
2018-05-03T10:58:49.257Z,16.40
2018-05-03T11:01:17.549Z,15.13
2018-05-03T11:03:45.823Z,16.53
2018-05-03T11:06:14.130Z,15.73
2018-05-03T11:08:42.419Z,16.17
2018-05-03T11:11:10.788Z,15.97
2018-05-03T11:13:39.069Z,15.50
2018-05-03T11:16:07.368Z,15.40
2018-05-03T11:18:35.689Z,14.43
2018-05-03T11:21:03.959Z,15.10
2018-05-03T11:23:32.218Z,17.00
2018-05-03T11:26:00.600Z,14.17
2018-05-03T11:28:28.798Z,14.40
2018-05-03T11:30:57.115Z,14.80
2018-05-03T11:33:25.390Z,15.20
2018-05-03T11:35:53.740Z,14.93
2018-05-03T11:38:22.078Z,15.10
2018-05-03T11:40:50.346Z,14.43
2018-05-03T11:43:18.649Z,14.07
2018-05-03T11:45:46.932Z,13.37
2018-05-03T11:48:15.229Z,14.60
2018-05-03T11:50:43.521Z,14.33
2018-05-03T11:53:11.830Z,13.43
2018-05-03T11:55:40.119Z,15.20
2018-05-03T11:58:08.461Z,13.10
2018-05-03T12:00:36.723Z,13.30
2018-05-03T12:03:05.004Z,14.47
2018-05-03T12:05:33.318Z,13.80
2018-05-03T12:08:01.599Z,13.90
2018-05-03T12:10:29.934Z,14.70
2018-05-03T12:12:58.198Z,14.10
2018-05-03T12:15:26.602Z,13.53
2018-05-03T12:17:56.507Z,13.37
2018-05-03T12:20:24.824Z,14.67
2018-05-03T12:22:53.940Z,14.37
2018-05-03T12:25:22.208Z,14.13
2018-05-03T12:27:50.564Z,15.70
2018-05-03T12:30:18.854Z,14.67
2018-05-03T12:32:47.880Z,14.60
2018-05-03T12:35:16.184Z,14.03
2018-05-03T12:37:44.438Z,13.83
2018-05-03T12:40:12.760Z,14.47
2018-05-03T12:42:41.801Z,14.60
2018-05-03T12:45:10.097Z,16.90
2018-05-03T12:47:38.366Z,14.23
2018-05-03T12:50:06.694Z,12.53
2018-05-03T12:52:35.752Z,15.60
2018-05-03T12:55:04.038Z,15.20
2018-05-03T12:57:32.347Z,14.83
2018-05-03T13:00:00.621Z,14.10
2018-05-03T13:02:29.722Z,14.07
2018-05-03T13:04:58.804Z,13.03
2018-05-03T13:07:27.101Z,13.80
2018-05-03T13:09:56.160Z,14.07
2018-05-03T13:12:24.442Z,14.83
2018-05-03T13:14:52.768Z,14.07
2018-05-03T13:17:21.171Z,14.87
2018-05-03T13:19:50.508Z,13.87
2018-05-03T13:22:20.076Z,14.13
2018-05-03T13:24:48.696Z,14.10
2018-05-03T13:27:28.209Z,16.00
2018-05-03T13:29:57.544Z,14.53
2018-05-03T13:32:25.873Z,14.47
2018-05-03T13:34:54.157Z,14.53
2018-05-03T13:37:22.443Z,14.53
2018-05-03T13:39:58.337Z,15.43
2018-05-03T13:42:27.589Z,14.53
2018-05-03T13:44:56.680Z,15.33
2018-05-03T13:47:25.096Z,15.63
2018-05-03T13:49:53.401Z,13.73
2018-05-03T13:52:27.443Z,14.07
2018-05-03T13:57:37.987Z,14.03
2018-05-03T14:00:06.300Z,16.60
2018-05-03T14:02:36.178Z,14.50
2018-05-03T14:05:08.175Z,15.90
2018-05-03T14:07:38.508Z,16.53
2018-05-03T14:10:06.849Z,15.03
2018-05-03T14:12:35.183Z,16.10
2018-05-03T14:15:04.329Z,15.50
2018-05-03T14:17:32.751Z,14.90
2018-05-03T14:20:01.152Z,15.80
2018-05-03T14:22:29.430Z,15.60
2018-05-03T14:24:57.827Z,14.90
2018-05-03T14:27:26.191Z,14.50
2018-05-03T14:29:54.538Z,15.93
2018-05-03T14:32:22.855Z,15.07
2018-05-03T14:34:51.140Z,15.83
2018-05-03T14:37:20.300Z,15.43
2018-05-03T14:39:48.791Z,19.93
2018-05-03T14:42:17.136Z,15.93
2018-05-03T14:44:46.313Z,16.10
2018-05-03T14:47:14.608Z,16.50
2018-05-03T14:49:43.260Z,15.20
2018-05-03T14:52:12.560Z,14.60
2018-05-03T14:54:40.925Z,14.70
2018-05-03T14:57:09.622Z,13.77
2018-05-03T14:59:38.243Z,14.63
2018-05-03T15:02:07.356Z,15.17
2018-05-03T15:04:35.917Z,13.33
2018-05-03T15:07:04.200Z,13.23
2018-05-03T15:09:32.536Z,12.33
2018-05-03T15:12:00.844Z,15.47
2018-05-03T15:14:29.167Z,12.13
2018-05-03T15:16:57.570Z,12.23
2018-05-03T15:19:26.638Z,13.80
2018-05-03T15:21:55.731Z,12.53
2018-05-03T15:24:24.007Z,12.17
2018-05-03T15:26:52.322Z,12.00
2018-05-03T15:29:20.661Z,12.70
2018-05-03T15:31:48.961Z,13.27
2018-05-03T15:34:18.032Z,15.30
2018-05-03T15:36:46.335Z,12.83
2018-05-03T15:39:15.431Z,12.37
2018-05-03T15:41:43.743Z,12.87
2018-05-03T15:44:12.048Z,11.83
2018-05-03T15:46:40.445Z,10.40
2018-05-03T15:49:08.796Z,9.70
2018-05-03T15:51:37.049Z,10.33
2018-05-03T15:54:05.388Z,8.70
2018-05-03T15:56:33.678Z,9.47
2018-05-03T15:59:09.919Z,8.97
2018-05-03T16:01:38.200Z,9.53
2018-05-03T16:04:06.595Z,9.00
2018-05-03T16:06:34.971Z,10.60
2018-05-03T16:09:04.050Z,9.00
2018-05-03T16:11:32.347Z,8.37
2018-05-03T16:14:00.638Z,9.20
2018-05-03T16:16:28.902Z,8.60
2018-05-03T16:18:57.219Z,9.27
2018-05-03T16:21:25.577Z,8.90
2018-05-03T16:23:53.942Z,9.67
2018-05-03T16:26:22.276Z,10.20
2018-05-03T16:28:50.646Z,11.80
2018-05-03T16:31:18.963Z,11.80
2018-05-03T16:33:47.265Z,12.53
2018-05-03T16:36:15.617Z,12.80
2018-05-03T16:38:43.889Z,15.27
2018-05-03T16:41:12.159Z,12.97
2018-05-03T16:43:40.486Z,11.10
2018-05-03T16:46:08.762Z,13.23
2018-05-03T16:48:37.847Z,13.10
2018-05-03T16:51:06.162Z,11.50
2018-05-03T16:53:34.462Z,11.77
2018-05-03T16:56:02.988Z,11.50
2018-05-03T16:58:31.377Z,11.33
2018-05-03T17:01:00.032Z,10.80
2018-05-03T17:03:28.593Z,12.13
2018-05-03T17:05:56.947Z,10.70
2018-05-03T17:08:26.057Z,11.50
2018-05-03T17:10:54.576Z,14.40
2018-05-03T17:13:24.608Z,10.00
2018-05-03T17:15:52.895Z,11.50
2018-05-03T17:18:21.165Z,11.17
2018-05-03T17:20:49.487Z,10.67
2018-05-03T17:23:18.538Z,11.77
2018-05-03T17:25:46.922Z,12.20
2018-05-03T17:28:15.210Z,12.10
2018-05-03T17:30:44.267Z,12.13
2018-05-03T17:33:13.397Z,12.37
2018-05-03T17:35:41.892Z,12.50
2018-05-03T17:38:10.294Z,13.67
2018-05-03T17:40:38.666Z,12.10
2018-05-03T17:43:08.390Z,15.00
2018-05-03T17:45:36.891Z,13.27
2018-05-03T17:48:05.252Z,13.40
2018-05-03T17:50:33.621Z,13.47
2018-05-03T17:53:03.025Z,21.10
2018-05-03T17:55:32.203Z,16.07
2018-05-03T17:58:01.298Z,15.07
2018-05-03T18:00:29.780Z,14.53
2018-05-03T18:02:59.340Z,14.63
2018-05-03T18:05:27.890Z,14.73
2018-05-03T18:07:56.981Z,13.47
2018-05-03T18:10:33.648Z,17.70
2018-05-03T18:13:03.563Z,25.80
2018-05-03T18:15:41.075Z,19.13
2018-05-03T18:18:10.900Z,14.73
2018-05-03T18:20:40.180Z,16.00
2018-05-03T18:23:09.412Z,14.60
2018-05-03T18:25:41.117Z,13.33
2018-05-03T18:28:10.902Z,17.30
2018-05-03T18:30:40.725Z,14.97
2018-05-03T18:33:10.018Z,15.17
2018-05-03T18:35:39.121Z,15.10
2018-05-03T18:38:08.280Z,14.60
2018-05-03T18:40:36.900Z,16.47
2018-05-03T18:43:05.240Z,17.00
2018-05-03T18:45:33.914Z,16.20
2018-05-03T18:48:02.987Z,17.67
2018-05-03T18:50:31.320Z,17.10
2018-05-03T18:52:59.653Z,14.57
2018-05-03T18:55:27.942Z,17.87
2018-05-03T18:57:56.270Z,18.10
2018-05-03T19:00:24.954Z,16.17
2018-05-03T19:02:53.327Z,14.53
2018-05-03T19:05:21.693Z,15.20
2018-05-03T19:07:50.221Z,14.37
2018-05-03T19:10:20.161Z,16.10
2018-05-03T19:12:59.184Z,13.60
2018-05-03T19:15:27.573Z,15.70
2018-05-03T19:17:56.549Z,23.23
2018-05-03T19:20:26.029Z,24.53
2018-05-03T19:22:55.460Z,23.47
2018-05-03T19:25:24.578Z,16.53
2018-05-03T19:27:54.295Z,14.10
2018-05-03T19:30:22.961Z,11.52
2018-05-03T19:32:51.294Z,11.07
2018-05-03T19:35:21.799Z,12.70
2018-05-03T19:37:50.986Z,11.73
2018-05-03T19:40:20.804Z,13.13
2018-05-03T19:42:50.430Z,10.13
2018-05-03T19:45:18.775Z,13.80
2018-05-03T19:47:47.156Z,13.67
2018-05-03T19:50:15.636Z,17.23
2018-05-03T19:52:44.664Z,13.13
2018-05-03T19:55:13.757Z,12.17
2018-05-03T19:57:42.808Z,9.30
2018-05-03T20:00:11.921Z,10.77
2018-05-03T20:02:40.205Z,9.63
2018-05-03T20:05:08.514Z,7.70
2018-05-03T20:07:37.593Z,9.97
2018-05-03T20:10:05.920Z,7.83
2018-05-03T20:12:34.222Z,6.90
2018-05-03T20:15:03.426Z,7.17
2018-05-03T20:17:31.739Z,8.40
2018-05-03T20:20:00.799Z,7.67
2018-05-03T20:22:29.135Z,7.30
2018-05-03T20:24:57.613Z,8.27
2018-05-03T20:27:25.826Z,7.53
2018-05-03T20:29:54.226Z,6.90
2018-05-03T20:32:22.507Z,7.40
2018-05-03T20:34:50.851Z,7.43
2018-05-03T20:37:19.192Z,7.30
2018-05-03T20:39:47.531Z,9.40
2018-05-03T20:42:15.847Z,7.20
2018-05-03T20:44:44.235Z,7.67
2018-05-03T20:47:13.469Z,8.70
2018-05-03T20:49:41.806Z,8.80
2018-05-03T20:52:10.930Z,7.73
2018-05-03T20:54:39.237Z,7.70
2018-05-03T20:57:07.530Z,8.53
2018-05-03T20:59:35.837Z,8.00
2018-05-03T21:02:04.905Z,9.97
2018-05-03T21:04:33.203Z,8.87
2018-05-03T21:07:02.293Z,9.00
2018-05-03T21:09:30.590Z,8.33
2018-05-03T21:11:58.899Z,10.27
2018-05-03T21:14:27.221Z,8.20
2018-05-03T21:16:55.517Z,6.33
2018-05-03T21:19:23.805Z,6.27
2018-05-03T21:21:52.829Z,6.30
2018-05-03T21:24:21.150Z,5.60
2018-05-03T21:26:49.471Z,4.37
2018-05-03T21:29:17.733Z,5.13
2018-05-03T21:31:46.031Z,3.70
2018-05-03T21:34:14.296Z,4.20
2018-05-03T21:36:43.354Z,4.30
2018-05-03T21:39:11.617Z,3.73
2018-05-03T21:41:39.952Z,3.40
2018-05-03T21:44:08.185Z,3.47
2018-05-03T21:46:36.499Z,3.50
2018-05-03T21:49:05.536Z,3.33
2018-05-03T21:51:33.805Z,3.10
2018-05-03T21:54:02.083Z,5.73
2018-05-03T21:56:30.356Z,3.13
2018-05-03T21:58:58.646Z,3.43
2018-05-03T22:01:26.924Z,2.70
2018-05-03T22:03:55.264Z,3.30
2018-05-03T22:06:23.540Z,2.57
2018-05-03T22:08:51.782Z,3.30
2018-05-03T22:11:20.027Z,2.40
2018-05-03T22:13:48.303Z,2.53
2018-05-03T22:16:17.364Z,3.10
2018-05-03T22:18:45.628Z,2.30
2018-05-03T22:21:13.947Z,2.43
2018-05-03T22:23:42.201Z,2.40
2018-05-03T22:26:10.466Z,5.90
2018-05-03T22:28:39.522Z,2.20
2018-05-03T22:31:07.779Z,2.97
2018-05-03T22:33:36.168Z,2.40
2018-05-03T22:36:04.439Z,2.47
2018-05-03T22:38:32.721Z,2.30
2018-05-03T22:41:00.974Z,2.33
2018-05-03T22:43:29.255Z,2.27
2018-05-03T22:45:57.558Z,2.23
2018-05-03T22:48:25.829Z,2.10
2018-05-03T22:50:54.089Z,2.17
2018-05-03T22:53:22.384Z,2.00
2018-05-03T22:55:50.738Z,2.30
2018-05-03T22:58:19.701Z,5.57
2018-05-03T23:00:47.979Z,2.47
2018-05-03T23:03:17.005Z,2.20
2018-05-03T23:05:45.300Z,2.13
2018-05-03T23:08:13.559Z,2.00
2018-05-03T23:10:41.810Z,1.83
2018-05-03T23:13:10.089Z,2.00
2018-05-03T23:15:38.347Z,2.20
2018-05-03T23:18:06.642Z,2.00
2018-05-03T23:20:34.992Z,2.50
2018-05-03T23:23:03.285Z,2.23
2018-05-03T23:25:31.545Z,2.10
2018-05-03T23:27:59.814Z,2.87
2018-05-03T23:30:28.156Z,5.70
2018-05-03T23:32:56.362Z,2.13
2018-05-03T23:35:24.636Z,1.90
2018-05-03T23:37:52.882Z,2.50
2018-05-03T23:40:21.937Z,2.40
2018-05-03T23:42:50.187Z,1.87
2018-05-03T23:45:18.496Z,2.10
2018-05-03T23:47:46.733Z,2.03
2018-05-03T23:50:14.993Z,3.03
2018-05-03T23:52:44.056Z,2.07
2018-05-03T23:55:12.313Z,2.10
2018-05-03T23:57:40.586Z,1.63
